Terminal Aerodrome Forecast
Issued by NWS

Current Version | Previous Version | Text Only | Print | Product List | Glossary On
Versions: 1 2 3 4 5 6 7 8 9 10 11 12 13 14 15 16
000
FTUS44 KMAF 291100
TAFFST
TAF
KFST 291127Z 2912/3012 22011KT P6SM SCT250
     FM291500 27008KT P6SM FEW250
     FM300200 19008KT P6SM FEW250=

USA.gov is the U.S. government's official web portal to all federal, state and local government web resources and services.